Tradition — WDF7569 — position and weather

sailwx.info

Track history (hours):
 
Tides and Currents Weather Stations Pressure Air Temp Water Temp Dewpoint Dewpoint Depression Visibility Wind Speed Wind Dir Waves Ship Positions

Tradition

Owner: Nordic Fisheries, Inc., New Bedford, MA. More information available from US FCC via Universal Licensing System and Coast Guard Vessel Documentation Center.

Last reported at 2017-Mar-23 03:10 UTC. Time now 2017-Mar-28 06:18 UTC.
Position N 42°21' W 070°21'.

Length 31 m.

Type: Fishing. MMSI: 367485830.

Date/timePositionNaut miles runAvg speedWind from/ knotsBaromVisibWave heightAir tempDewpointWater temp
2017-Mar-23 03:10N 42°21' W 070°21'3 5.5
2017-Mar-23 02:33N 42°24' W 070°25'1 1.3
2017-Mar-23 01:33N 42°23' W 070°24'2 1.8
2017-Mar-23 00:33N 42°24' W 070°25'0 0.1
2017-Mar-22 23:25N 42°24' W 070°25'4 5.0
2017-Mar-22 22:33N 42°26' W 070°31'1 1.3
2017-Mar-22 21:33N 42°25' W 070°29'1 1.4
2017-Mar-22 20:33N 42°25' W 070°27'1 1.2
2017-Mar-22 19:33N 42°24' W 070°26'2 1.6
2017-Mar-22 18:30N 42°23' W 070°25'2 1.5
2017-Mar-22 17:19N 42°24' W 070°26'1 0.7
2017-Mar-22 15:32N 42°24' W 070°25'2 1.4
2017-Mar-22 14:27N 42°24' W 070°27'1 0.8
2017-Mar-22 13:17N 42°24' W 070°26'1 1.7
2017-Mar-22 12:33N 42°23' W 070°24'2 1.9
2017-Mar-22 11:33N 42°24' W 070°26'0 0.2
2017-Mar-22 10:23N 42°24' W 070°26'2 2.7
2017-Mar-22 09:32N 42°23' W 070°24'1 1.3
2017-Mar-22 08:33N 42°24' W 070°25'1 0.7
2017-Mar-22 07:33N 42°24' W 070°26'0 0.3
2017-Mar-22 06:32N 42°24' W 070°26'1 0.7
2017-Mar-22 05:33N 42°24' W 070°25'1 1.2
2017-Mar-22 04:30N 42°24' W 070°26'3 3.0
2017-Mar-22 03:33N 42°23' W 070°23'1 1.3
2017-Mar-22 02:33N 42°23' W 070°25'1 1.0
2017-Mar-22 01:31N 42°24' W 070°26'0 0.3
2017-Mar-22 00:24N 42°23' W 070°26'1 1.3
2017-Mar-21 23:33N 42°23' W 070°25'1 1.4
2017-Mar-21 22:32N 42°22' W 070°23'3 3.0
2017-Mar-21 21:33N 42°24' W 070°26'3 2.7
2017-Mar-21 20:33N 42°22' W 070°23'0 0.3
2017-Mar-21 19:27N 42°22' W 070°23'3 3.7
2017-Mar-21 18:33N 42°24' W 070°27'4 1.3
2017-Mar-21 15:25N 42°21' W 070°23'0 0.4
2017-Mar-21 14:33N 42°21' W 070°23'4 3.0
2017-Mar-21 13:10N 42°24' W 070°27'1 1.4
2017-Mar-21 12:33N 42°24' W 070°26'3 1.3
2017-Mar-21 10:04N 42°22' W 070°23'2 2.9
2017-Mar-21 09:31N 42°23' W 070°24'2 1.8
2017-Mar-21 08:33N 42°23' W 070°27'1 0.8
2017-Mar-21 07:33N 42°24' W 070°28'1 0.6
2017-Mar-21 06:31N 42°24' W 070°28'3 3.1
2017-Mar-21 05:33N 42°23' W 070°25'2 1.5
2017-Mar-21 04:33N 42°24' W 070°26'3 2.8
2017-Mar-21 03:33N 42°23' W 070°23'3 2.7
2017-Mar-21 02:32N 42°24' W 070°26'3 2.7
2017-Mar-21 01:33N 42°23' W 070°23'3 2.6
2017-Mar-21 00:32N 42°24' W 070°26'3 2.9
2017-Mar-20 23:33N 42°23' W 070°23'3 3.4
2017-Mar-20 22:33N 42°25' W 070°27'4 3.9
2017-Mar-20 21:32N 42°23' W 070°22'4 3.6
2017-Mar-20 20:33N 42°25' W 070°26'4 3.5
2017-Mar-20 19:32N 42°23' W 070°22'3 3.0
2017-Mar-20 18:32N 42°24' W 070°25'4 3.7
2017-Mar-20 17:33N 42°22' W 070°22'1 0.0
2017-Mar-19 17:33N 42°22' W 070°22'3 2.6
2017-Mar-19 16:32N 42°20' W 070°19'3 2.7
2017-Mar-19 15:32N 42°22' W 070°22'2 2.5
2017-Mar-19 14:33N 42°21' W 070°20'3 2.5
2017-Mar-19 13:31N 42°22' W 070°22'1 0.9
2017-Mar-19 12:29N 42°22' W 070°21'0 0.4
2017-Mar-19 11:18N 42°22' W 070°22'2 3.1
2017-Mar-19 10:33N 42°21' W 070°19'3 2.0
2017-Mar-19 09:07N 42°23' W 070°22'2 2.8
2017-Mar-19 08:34N 42°22' W 070°21'2 1.2
2017-Mar-19 06:32N 42°23' W 070°24'1 1.3
2017-Mar-19 05:33N 42°22' W 070°22'1 0.8
2017-Mar-19 04:08N 42°22' W 070°21'2 2.6
2017-Mar-19 03:33N 42°23' W 070°22'0 0.0
2017-Mar-19 01:33N 42°23' W 070°22'3 3.3
2017-Mar-19 00:32N 42°20' W 070°19'3 3.4
2017-Mar-18 23:33N 42°23' W 070°22'3 3.3
2017-Mar-18 22:30N 42°20' W 070°19'4 1.7
2017-Mar-18 20:25N 42°23' W 070°23'1 0.4
2017-Mar-18 18:04N 42°22' W 070°24'1 1.1
2017-Mar-18 17:31N 42°22' W 070°23'0 0.2
2017-Mar-18 15:15N 42°23' W 070°23'0 0.1
2017-Mar-18 13:27N 42°23' W 070°22'1 1.0
2017-Mar-18 12:09N 42°22' W 070°21'1 1.8
2017-Mar-18 11:32N 42°22' W 070°22'2 2.3
2017-Mar-18 10:33N 42°21' W 070°20'2 1.7
2017-Mar-18 09:32N 42°22' W 070°21'1 0.6
2017-Mar-18 08:17N 42°22' W 070°22'3 3.8
2017-Mar-18 07:33N 42°21' W 070°19'2 2.3
2017-Mar-18 06:33N 42°22' W 070°22'0 0.3
2017-Mar-18 05:14N 42°22' W 070°22'0 0.1
2017-Mar-18 02:23N 42°22' W 070°22'2 1.9
2017-Mar-18 01:33N 42°22' W 070°20'1 1.4
2017-Mar-18 00:33N 42°23' W 070°22'3 2.7
2017-Mar-17 23:33N 42°21' W 070°19'2 1.6
2017-Mar-17 22:33N 42°22' W 070°21'1 1.2
2017-Mar-17 21:23N 42°23' W 070°22'0 0.0
2017-Mar-17 15:13N 42°23' W 070°22'0 0.1
2017-Mar-17 13:33N 42°23' W 070°22'5 4.3
2017-Mar-17 12:28N 42°20' W 070°18'3 2.9
2017-Mar-17 11:20N 42°22' W 070°21'1 1.8
2017-Mar-17 10:33N 42°21' W 070°20'2 2.1
2017-Mar-17 09:29N 42°23' W 070°22'3 1.3
2017-Mar-17 07:29N 42°20' W 070°20'3 1.6
2017-Mar-17 05:30N 42°23' W 070°23'1 0.5
2017-Mar-17 03:33N 42°22' W 070°22'0 0.2
2017-Mar-17 02:33N 42°22' W 070°22'0 0.1
2017-Mar-17 01:31N 42°22' W 070°21'1 1.1
2017-Mar-17 00:25N 42°21' W 070°20'0 0.1
2017-Mar-16 23:33N 42°21' W 070°20'  
Track history (hours):
 
Tides and Currents Weather Stations Pressure Air Temp Water Temp Dewpoint Dewpoint Depression Visibility Wind Speed Wind Dir Waves Ship Positions

Tradition

Owner: Nordic Fisheries, Inc., New Bedford, MA. More information available from US FCC via Universal Licensing System and Coast Guard Vessel Documentation Center.

Last reported at 2017-Mar-23 03:10 UTC. Time now 2017-Mar-28 06:18 UTC.
Position N 42°21' W 070°21'.

Length 31 m.

Type: Fishing. MMSI: 367485830.

Date/timePositionNaut miles runAvg speedWind from/ knotsBaromVisibWave heightAir tempDewpointWater temp
2017-Mar-23 03:10N 42°21' W 070°21'3 5.5
2017-Mar-23 02:33N 42°24' W 070°25'1 1.3
2017-Mar-23 01:33N 42°23' W 070°24'2 1.8
2017-Mar-23 00:33N 42°24' W 070°25'0 0.1
2017-Mar-22 23:25N 42°24' W 070°25'4 5.0
2017-Mar-22 22:33N 42°26' W 070°31'1 1.3
2017-Mar-22 21:33N 42°25' W 070°29'1 1.4
2017-Mar-22 20:33N 42°25' W 070°27'1 1.2
2017-Mar-22 19:33N 42°24' W 070°26'2 1.6
2017-Mar-22 18:30N 42°23' W 070°25'2 1.5
2017-Mar-22 17:19N 42°24' W 070°26'1 0.7
2017-Mar-22 15:32N 42°24' W 070°25'2 1.4
2017-Mar-22 14:27N 42°24' W 070°27'1 0.8
2017-Mar-22 13:17N 42°24' W 070°26'1 1.7
2017-Mar-22 12:33N 42°23' W 070°24'2 1.9
2017-Mar-22 11:33N 42°24' W 070°26'0 0.2
2017-Mar-22 10:23N 42°24' W 070°26'2 2.7
2017-Mar-22 09:32N 42°23' W 070°24'1 1.3
2017-Mar-22 08:33N 42°24' W 070°25'1 0.7
2017-Mar-22 07:33N 42°24' W 070°26'0 0.3
2017-Mar-22 06:32N 42°24' W 070°26'1 0.7
2017-Mar-22 05:33N 42°24' W 070°25'1 1.2
2017-Mar-22 04:30N 42°24' W 070°26'3 3.0
2017-Mar-22 03:33N 42°23' W 070°23'1 1.3
2017-Mar-22 02:33N 42°23' W 070°25'1 1.0
2017-Mar-22 01:31N 42°24' W 070°26'0 0.3
2017-Mar-22 00:24N 42°23' W 070°26'1 1.3
2017-Mar-21 23:33N 42°23' W 070°25'1 1.4
2017-Mar-21 22:32N 42°22' W 070°23'3 3.0
2017-Mar-21 21:33N 42°24' W 070°26'3 2.7
2017-Mar-21 20:33N 42°22' W 070°23'0 0.3
2017-Mar-21 19:27N 42°22' W 070°23'3 3.7
2017-Mar-21 18:33N 42°24' W 070°27'4 1.3
2017-Mar-21 15:25N 42°21' W 070°23'0 0.4
2017-Mar-21 14:33N 42°21' W 070°23'4 3.0
2017-Mar-21 13:10N 42°24' W 070°27'1 1.4
2017-Mar-21 12:33N 42°24' W 070°26'3 1.3
2017-Mar-21 10:04N 42°22' W 070°23'2 2.9
2017-Mar-21 09:31N 42°23' W 070°24'2 1.8
2017-Mar-21 08:33N 42°23' W 070°27'1 0.8
2017-Mar-21 07:33N 42°24' W 070°28'1 0.6
2017-Mar-21 06:31N 42°24' W 070°28'3 3.1
2017-Mar-21 05:33N 42°23' W 070°25'2 1.5
2017-Mar-21 04:33N 42°24' W 070°26'3 2.8
2017-Mar-21 03:33N 42°23' W 070°23'3 2.7
2017-Mar-21 02:32N 42°24' W 070°26'3 2.7
2017-Mar-21 01:33N 42°23' W 070°23'3 2.6
2017-Mar-21 00:32N 42°24' W 070°26'3 2.9
2017-Mar-20 23:33N 42°23' W 070°23'3 3.4
2017-Mar-20 22:33N 42°25' W 070°27'4 3.9
2017-Mar-20 21:32N 42°23' W 070°22'4 3.6
2017-Mar-20 20:33N 42°25' W 070°26'4 3.5
2017-Mar-20 19:32N 42°23' W 070°22'3 3.0
2017-Mar-20 18:32N 42°24' W 070°25'4 3.7
2017-Mar-20 17:33N 42°22' W 070°22'1 0.0
2017-Mar-19 17:33N 42°22' W 070°22'3 2.6
2017-Mar-19 16:32N 42°20' W 070°19'3 2.7
2017-Mar-19 15:32N 42°22' W 070°22'2 2.5
2017-Mar-19 14:33N 42°21' W 070°20'3 2.5
2017-Mar-19 13:31N 42°22' W 070°22'1 0.9
2017-Mar-19 12:29N 42°22' W 070°21'0 0.4
2017-Mar-19 11:18N 42°22' W 070°22'2 3.1
2017-Mar-19 10:33N 42°21' W 070°19'3 2.0
2017-Mar-19 09:07N 42°23' W 070°22'2 2.8
2017-Mar-19 08:34N 42°22' W 070°21'2 1.2
2017-Mar-19 06:32N 42°23' W 070°24'1 1.3
2017-Mar-19 05:33N 42°22' W 070°22'1 0.8
2017-Mar-19 04:08N 42°22' W 070°21'2 2.6
2017-Mar-19 03:33N 42°23' W 070°22'0 0.0
2017-Mar-19 01:33N 42°23' W 070°22'3 3.3
2017-Mar-19 00:32N 42°20' W 070°19'3 3.4
2017-Mar-18 23:33N 42°23' W 070°22'3 3.3
2017-Mar-18 22:30N 42°20' W 070°19'4 1.7
2017-Mar-18 20:25N 42°23' W 070°23'1 0.4
2017-Mar-18 18:04N 42°22' W 070°24'1 1.1
2017-Mar-18 17:31N 42°22' W 070°23'0 0.2
2017-Mar-18 15:15N 42°23' W 070°23'0 0.1
2017-Mar-18 13:27N 42°23' W 070°22'1 1.0
2017-Mar-18 12:09N 42°22' W 070°21'1 1.8
2017-Mar-18 11:32N 42°22' W 070°22'2 2.3
2017-Mar-18 10:33N 42°21' W 070°20'2 1.7
2017-Mar-18 09:32N 42°22' W 070°21'1 0.6
2017-Mar-18 08:17N 42°22' W 070°22'3 3.8
2017-Mar-18 07:33N 42°21' W 070°19'2 2.3
2017-Mar-18 06:33N 42°22' W 070°22'0 0.3
2017-Mar-18 05:14N 42°22' W 070°22'0 0.1
2017-Mar-18 02:23N 42°22' W 070°22'2 1.9
2017-Mar-18 01:33N 42°22' W 070°20'1 1.4
2017-Mar-18 00:33N 42°23' W 070°22'3 2.7
2017-Mar-17 23:33N 42°21' W 070°19'2 1.6
2017-Mar-17 22:33N 42°22' W 070°21'1 1.2
2017-Mar-17 21:23N 42°23' W 070°22'0 0.0
2017-Mar-17 15:13N 42°23' W 070°22'0 0.1
2017-Mar-17 13:33N 42°23' W 070°22'5 4.3
2017-Mar-17 12:28N 42°20' W 070°18'3 2.9
2017-Mar-17 11:20N 42°22' W 070°21'1 1.8
2017-Mar-17 10:33N 42°21' W 070°20'2 2.1
2017-Mar-17 09:29N 42°23' W 070°22'3 1.3
2017-Mar-17 07:29N 42°20' W 070°20'3 1.6
2017-Mar-17 05:30N 42°23' W 070°23'1 0.5
2017-Mar-17 03:33N 42°22' W 070°22'0 0.2
2017-Mar-17 02:33N 42°22' W 070°22'0 0.1
2017-Mar-17 01:31N 42°22' W 070°21'1 1.1
2017-Mar-17 00:25N 42°21' W 070°20'0 0.1
2017-Mar-16 23:33N 42°21' W 070°20'  

Dump ship's entire track history